createdAt,value
2022-07-26T00:00:58.646Z,26.16
2022-07-26T00:03:27.893Z,26.23
2022-07-26T00:05:55.823Z,26.21
2022-07-26T00:08:23.814Z,26.10
2022-07-26T00:10:52.407Z,26.08
2022-07-26T00:13:21.915Z,26.13
2022-07-26T00:15:50.633Z,26.15
2022-07-26T00:18:18.910Z,26.17
2022-07-26T00:20:48.942Z,26.15
2022-07-26T00:23:17.021Z,26.09
2022-07-26T00:25:44.970Z,26.02
2022-07-26T00:28:12.973Z,26.05
2022-07-26T00:30:40.979Z,26.05
2022-07-26T00:33:09.017Z,25.79
2022-07-26T00:35:37.148Z,25.63
2022-07-26T00:38:06.553Z,25.63
2022-07-26T00:40:35.925Z,25.64
2022-07-26T00:43:03.957Z,25.68
2022-07-26T00:45:32.975Z,25.64
2022-07-26T00:48:00.929Z,25.29
2022-07-26T00:50:28.862Z,25.26
2022-07-26T00:52:56.996Z,25.34
2022-07-26T00:55:26.324Z,25.37
2022-07-26T00:57:54.449Z,25.34
2022-07-26T01:00:27.796Z,25.32
2022-07-26T01:02:55.819Z,25.26
2022-07-26T01:05:24.350Z,25.32
2022-07-26T01:07:53.065Z,25.20
2022-07-26T01:10:21.924Z,25.08
2022-07-26T01:12:51.362Z,25.13
2022-07-26T01:15:19.422Z,25.09
2022-07-26T01:17:47.518Z,25.25
2022-07-26T01:20:15.983Z,25.34
2022-07-26T01:22:45.314Z,25.40
2022-07-26T01:25:13.374Z,25.45
2022-07-26T01:27:41.403Z,25.51
2022-07-26T01:30:13.102Z,25.57
2022-07-26T01:32:41.656Z,25.51
2022-07-26T01:35:10.737Z,25.59
2022-07-26T01:37:38.785Z,25.58
2022-07-26T01:40:11.327Z,25.52
2022-07-26T01:42:40.923Z,25.50
2022-07-26T01:45:09.996Z,25.47
2022-07-26T01:47:38.016Z,25.43
2022-07-26T01:50:08.558Z,25.45
2022-07-26T01:52:37.326Z,25.42
2022-07-26T01:55:05.896Z,25.44
2022-07-26T01:57:35.274Z,25.39
2022-07-26T02:00:05.227Z,25.32
2022-07-26T02:02:35.315Z,25.33
2022-07-26T02:05:03.822Z,25.32
2022-07-26T02:07:34.116Z,25.28
2022-07-26T02:10:02.105Z,25.30
2022-07-26T02:12:30.062Z,25.30
2022-07-26T02:15:00.586Z,25.23
2022-07-26T02:17:28.573Z,25.18
2022-07-26T02:19:56.677Z,25.16
2022-07-26T02:22:24.714Z,25.15
2022-07-26T02:24:52.586Z,25.19
2022-07-26T02:27:20.833Z,25.24
2022-07-26T02:29:48.733Z,25.27
2022-07-26T02:32:18.012Z,25.18
2022-07-26T02:34:45.905Z,25.19
2022-07-26T02:37:13.821Z,25.15
2022-07-26T02:39:41.831Z,25.10
2022-07-26T02:42:09.825Z,25.06
2022-07-26T02:44:37.792Z,24.98
2022-07-26T02:47:05.929Z,24.69
2022-07-26T02:49:35.528Z,24.66
2022-07-26T02:52:06.634Z,24.73
2022-07-26T02:54:34.555Z,24.74
2022-07-26T02:57:02.450Z,24.77
2022-07-26T02:59:30.402Z,24.79
2022-07-26T03:01:58.533Z,24.79
2022-07-26T03:04:26.614Z,24.70
2022-07-26T03:06:55.970Z,24.80
2022-07-26T03:09:24.039Z,24.77
2022-07-26T03:11:52.089Z,24.74
2022-07-26T03:14:20.042Z,24.73
2022-07-26T03:16:48.383Z,24.71
2022-07-26T03:19:16.359Z,24.81
2022-07-26T03:21:44.321Z,24.76
2022-07-26T03:24:13.604Z,24.38
2022-07-26T03:26:41.485Z,24.25
2022-07-26T03:29:09.427Z,24.21
2022-07-26T03:31:37.342Z,24.18
2022-07-26T03:34:05.718Z,24.13
2022-07-26T03:36:33.780Z,24.24
2022-07-26T03:39:01.746Z,24.30
2022-07-26T03:41:31.630Z,24.24
2022-07-26T03:43:59.569Z,24.12
2022-07-26T03:46:27.796Z,24.13
2022-07-26T03:48:56.066Z,24.25
2022-07-26T03:51:24.329Z,24.36
2022-07-26T03:53:52.358Z,24.44
2022-07-26T03:56:35.262Z,24.56
2022-07-26T03:59:06.388Z,24.47
2022-07-26T04:01:35.305Z,24.40
2022-07-26T04:04:03.461Z,24.47
2022-07-26T04:06:31.425Z,24.67
2022-07-26T04:08:59.330Z,24.77
2022-07-26T04:11:28.593Z,25.03
2022-07-26T04:13:57.305Z,25.11
2022-07-26T04:16:27.127Z,25.19
2022-07-26T04:18:55.509Z,25.19
2022-07-26T04:21:23.704Z,25.23
2022-07-26T04:23:52.147Z,25.23
2022-07-26T04:26:20.417Z,25.31
2022-07-26T04:28:48.894Z,25.39
2022-07-26T04:31:16.878Z,25.41
2022-07-26T04:33:46.238Z,25.40
2022-07-26T04:36:14.220Z,25.41
2022-07-26T04:38:42.756Z,25.43
2022-07-26T04:41:10.754Z,25.43
2022-07-26T04:43:38.677Z,25.43
2022-07-26T04:46:07.286Z,25.50
2022-07-26T04:48:35.532Z,25.56
2022-07-26T04:51:05.031Z,25.65
2022-07-26T04:53:33.068Z,25.68
2022-07-26T04:56:00.986Z,25.74
2022-07-26T04:58:28.995Z,25.84
2022-07-26T05:01:09.454Z,26.00
2022-07-26T05:03:38.166Z,26.10
2022-07-26T05:06:08.029Z,26.17
2022-07-26T05:08:36.106Z,26.27
2022-07-26T05:11:04.584Z,26.15
2022-07-26T05:13:32.934Z,26.16
2022-07-26T05:16:01.911Z,26.18
2022-07-26T05:18:45.973Z,26.37
2022-07-26T05:21:19.621Z,26.45
2022-07-26T05:23:47.646Z,26.53
2022-07-26T05:26:15.766Z,26.61
2022-07-26T05:28:43.662Z,26.51
2022-07-26T05:31:11.738Z,26.59
2022-07-26T05:33:39.794Z,26.67
2022-07-26T05:36:08.028Z,26.64
2022-07-26T05:38:37.626Z,26.66
2022-07-26T05:41:06.085Z,26.42
2022-07-26T05:43:40.924Z,26.21
2022-07-26T05:46:10.799Z,26.12
2022-07-26T05:48:39.026Z,26.00
2022-07-26T05:51:07.244Z,25.98
2022-07-26T05:53:35.246Z,25.96
2022-07-26T05:56:04.765Z,26.01
2022-07-26T05:58:32.877Z,26.04
2022-07-26T06:01:00.856Z,26.19
2022-07-26T06:03:30.078Z,26.33
2022-07-26T06:05:59.671Z,26.41
2022-07-26T06:08:27.977Z,26.41
2022-07-26T06:10:56.011Z,26.44
2022-07-26T06:13:25.515Z,26.49
2022-07-26T06:15:53.952Z,26.41
2022-07-26T06:18:22.011Z,26.38
2022-07-26T06:20:50.221Z,26.39
2022-07-26T06:23:18.209Z,26.41
2022-07-26T06:26:02.423Z,26.47
2022-07-26T06:28:32.656Z,26.56
2022-07-26T06:31:00.710Z,26.68
2022-07-26T06:33:28.665Z,26.72
2022-07-26T06:35:56.659Z,26.87
2022-07-26T06:38:24.728Z,26.97
2022-07-26T06:40:52.752Z,27.05
2022-07-26T06:43:20.784Z,27.18
2022-07-26T06:45:50.576Z,27.26
2022-07-26T06:48:18.849Z,27.26
2022-07-26T06:50:46.884Z,27.32
2022-07-26T06:53:14.925Z,27.32
2022-07-26T06:55:43.111Z,27.35
2022-07-26T06:58:11.187Z,27.38
2022-07-26T07:00:39.233Z,27.46
2022-07-26T07:03:08.629Z,27.52
2022-07-26T07:05:36.995Z,27.53
2022-07-26T07:08:07.437Z,27.50
2022-07-26T07:10:35.448Z,27.47
2022-07-26T07:13:04.263Z,27.46
2022-07-26T07:15:32.510Z,27.49
2022-07-26T07:18:00.712Z,27.55
2022-07-26T07:20:30.453Z,27.64
2022-07-26T07:22:58.651Z,27.70
2022-07-26T07:25:30.892Z,27.72
2022-07-26T07:27:59.373Z,27.73
2022-07-26T07:30:28.278Z,27.74
2022-07-26T07:32:57.043Z,27.76
2022-07-26T07:35:31.632Z,27.71
2022-07-26T07:38:02.070Z,27.55
2022-07-26T07:40:30.541Z,27.28
2022-07-26T07:42:59.369Z,26.99
2022-07-26T07:45:27.795Z,26.96
2022-07-26T07:47:56.106Z,26.84
2022-07-26T07:50:27.189Z,26.76
2022-07-26T07:52:59.133Z,26.66
2022-07-26T07:55:41.459Z,26.53
2022-07-26T07:58:12.416Z,26.48
2022-07-26T08:00:42.649Z,26.23
2022-07-26T08:03:10.763Z,25.99
2022-07-26T08:05:40.507Z,25.83
2022-07-26T08:08:09.197Z,25.64
2022-07-26T08:10:43.672Z,25.53
2022-07-26T08:13:21.409Z,25.46
2022-07-26T08:15:50.697Z,25.51
2022-07-26T08:18:19.667Z,25.62
2022-07-26T08:20:54.020Z,25.66
2022-07-26T08:23:22.649Z,25.74
2022-07-26T08:25:57.796Z,25.94
2022-07-26T08:28:46.894Z,26.06
2022-07-26T08:31:15.730Z,26.25
2022-07-26T08:33:46.294Z,26.14
2022-07-26T08:36:16.014Z,26.00
2022-07-26T08:38:44.325Z,26.03
2022-07-26T08:41:13.705Z,25.90
2022-07-26T08:43:43.747Z,25.68
2022-07-26T08:46:27.725Z,25.66
2022-07-26T08:48:57.014Z,25.73
2022-07-26T08:51:26.286Z,25.86
2022-07-26T08:54:02.159Z,25.92
2022-07-26T08:56:35.518Z,25.97
2022-07-26T08:59:07.982Z,26.12
2022-07-26T09:01:36.301Z,26.25
2022-07-26T09:04:31.143Z,26.13
2022-07-26T09:07:03.166Z,26.23
2022-07-26T09:09:32.587Z,26.34
2022-07-26T09:12:15.004Z,26.35
2022-07-26T09:14:42.993Z,26.26
2022-07-26T09:17:10.886Z,26.36
2022-07-26T09:19:38.834Z,26.48
2022-07-26T09:22:12.074Z,26.63
2022-07-26T09:24:42.376Z,26.51
2022-07-26T09:27:18.477Z,26.45
2022-07-26T09:29:48.718Z,26.45
2022-07-26T09:32:19.328Z,26.38
2022-07-26T09:34:53.158Z,26.50
2022-07-26T09:37:35.157Z,26.49
2022-07-26T09:40:06.225Z,26.63
2022-07-26T09:42:35.818Z,26.39
2022-07-26T09:45:15.896Z,26.23
2022-07-26T09:47:43.919Z,26.20
2022-07-26T09:50:14.250Z,26.05
2022-07-26T09:52:57.659Z,25.97
2022-07-26T09:55:26.197Z,26.06
2022-07-26T09:57:55.936Z,26.18
2022-07-26T10:00:25.785Z,26.16
2022-07-26T10:02:54.340Z,26.11
2022-07-26T10:05:22.680Z,25.93
2022-07-26T10:07:51.670Z,25.68
2022-07-26T10:10:24.390Z,25.60
2022-07-26T10:12:55.579Z,25.63
2022-07-26T10:15:38.469Z,25.61
2022-07-26T10:18:08.343Z,25.65
2022-07-26T10:20:42.217Z,25.70
2022-07-26T10:23:49.978Z,25.79
2022-07-26T10:26:45.428Z,25.91
2022-07-26T10:29:29.255Z,25.87
2022-07-26T10:32:17.542Z,25.95
2022-07-26T10:34:46.346Z,25.88
2022-07-26T10:37:27.596Z,25.88
2022-07-26T10:40:19.156Z,26.16
2022-07-26T10:42:47.104Z,26.12
2022-07-26T10:45:23.030Z,26.11
2022-07-26T10:48:22.737Z,26.30
2022-07-26T10:50:53.395Z,26.54
2022-07-26T10:53:23.433Z,26.71
2022-07-26T10:55:52.875Z,26.89
2022-07-26T10:58:21.670Z,27.35
2022-07-26T11:01:00.931Z,27.63
2022-07-26T11:03:38.945Z,27.75
2022-07-26T11:06:14.588Z,28.02
2022-07-26T11:08:47.783Z,28.05
2022-07-26T11:11:29.992Z,27.92
2022-07-26T11:14:07.020Z,27.82
2022-07-26T11:16:40.774Z,27.74
2022-07-26T11:19:17.369Z,27.66
2022-07-26T11:21:46.513Z,27.60
2022-07-26T11:24:14.946Z,27.65
2022-07-26T11:26:44.137Z,27.57
2022-07-26T11:29:17.696Z,27.76
2022-07-26T11:32:00.141Z,27.99
2022-07-26T11:34:35.627Z,28.09
2022-07-26T11:37:05.738Z,28.11
2022-07-26T11:39:36.454Z,27.79
2022-07-26T11:42:06.365Z,27.53
2022-07-26T11:44:34.664Z,27.31
2022-07-26T11:47:12.072Z,27.16
2022-07-26T11:52:31.147Z,26.93
2022-07-26T11:54:59.186Z,26.91
2022-07-26T11:57:30.078Z,26.93
2022-07-26T11:59:59.707Z,27.04
2022-07-26T12:02:30.106Z,27.05
2022-07-26T12:05:14.081Z,27.04
2022-07-26T12:07:54.889Z,27.17
2022-07-26T12:10:23.139Z,27.15
2022-07-26T12:12:51.389Z,27.16
2022-07-26T12:15:19.578Z,27.19
2022-07-26T12:18:01.772Z,27.05
2022-07-26T12:20:29.771Z,27.08
2022-07-26T12:23:04.936Z,26.85
2022-07-26T12:25:33.709Z,26.77
2022-07-26T12:28:01.731Z,26.66
2022-07-26T12:30:36.461Z,26.60
2022-07-26T12:33:05.960Z,26.60
2022-07-26T12:35:35.644Z,26.60
2022-07-26T12:38:04.615Z,26.47
2022-07-26T12:40:41.930Z,26.32
2022-07-26T12:43:10.066Z,26.02
2022-07-26T12:45:38.541Z,26.11
2022-07-26T12:48:11.837Z,26.16
2022-07-26T12:50:40.036Z,26.07
2022-07-26T12:53:12.559Z,25.97
2022-07-26T12:55:40.817Z,25.82
2022-07-26T12:58:09.154Z,25.75
2022-07-26T13:00:37.184Z,25.79
2022-07-26T13:03:05.348Z,25.88
2022-07-26T13:05:34.649Z,25.71
2022-07-26T13:08:02.554Z,25.60
2022-07-26T13:10:33.460Z,25.63
2022-07-26T13:13:02.609Z,25.69
2022-07-26T13:15:36.415Z,25.65
2022-07-26T13:18:08.155Z,25.65
2022-07-26T13:20:39.231Z,25.77
2022-07-26T13:23:09.772Z,25.77
2022-07-26T13:25:40.617Z,25.94
2022-07-26T13:28:09.970Z,26.14
2022-07-26T13:30:42.896Z,26.18
2022-07-26T13:33:11.689Z,26.00
2022-07-26T13:35:42.833Z,25.99
2022-07-26T13:38:11.119Z,25.80
2022-07-26T13:40:39.104Z,25.76
2022-07-26T13:43:07.111Z,25.75
2022-07-26T13:45:35.056Z,25.76
2022-07-26T13:48:03.031Z,25.96
2022-07-26T13:50:30.954Z,26.11
2022-07-26T13:53:00.302Z,26.12
2022-07-26T13:55:28.301Z,26.15
2022-07-26T13:57:57.877Z,26.32
2022-07-26T14:00:27.712Z,26.11
2022-07-26T14:02:58.033Z,26.12
2022-07-26T14:05:27.532Z,26.25
2022-07-26T14:07:56.182Z,26.18
2022-07-26T14:10:25.862Z,26.10
2022-07-26T14:12:54.381Z,26.04
2022-07-26T14:15:23.496Z,26.18
2022-07-26T14:17:52.228Z,26.11
2022-07-26T14:20:20.977Z,26.10
2022-07-26T14:22:53.057Z,25.91
2022-07-26T14:25:21.414Z,25.82
2022-07-26T14:27:51.189Z,25.70
2022-07-26T14:30:19.919Z,25.71
2022-07-26T14:32:48.248Z,25.61
2022-07-26T14:35:17.522Z,25.47
2022-07-26T14:37:46.298Z,25.38
2022-07-26T14:40:16.437Z,25.39
2022-07-26T14:42:45.039Z,25.43
2022-07-26T14:45:15.368Z,25.48
2022-07-26T14:47:43.837Z,25.40
2022-07-26T14:50:13.091Z,25.28
2022-07-26T14:52:42.252Z,25.24
2022-07-26T14:55:10.727Z,25.31
2022-07-26T14:57:40.275Z,25.34
2022-07-26T15:00:10.700Z,25.30
2022-07-26T15:02:41.577Z,25.26
2022-07-26T15:05:10.609Z,25.13
2022-07-26T15:07:39.875Z,25.05
2022-07-26T15:10:09.221Z,25.07
2022-07-26T15:12:37.976Z,25.13
2022-07-26T15:15:07.276Z,25.06
2022-07-26T15:17:35.509Z,25.04
2022-07-26T15:20:06.255Z,25.06
2022-07-26T15:22:34.746Z,25.15
2022-07-26T15:25:02.706Z,25.19
2022-07-26T15:27:30.652Z,25.33
2022-07-26T15:30:04.223Z,25.35
2022-07-26T15:32:35.169Z,25.43
2022-07-26T15:35:08.276Z,25.46
2022-07-26T15:37:44.677Z,25.43
2022-07-26T15:40:13.677Z,25.38
2022-07-26T15:42:44.260Z,25.40
2022-07-26T15:45:14.085Z,25.38
2022-07-26T15:48:05.734Z,25.44
2022-07-26T15:50:31.791Z,25.40
2022-07-26T15:52:59.771Z,25.40
2022-07-26T15:55:27.695Z,25.42
2022-07-26T15:57:55.689Z,25.59
2022-07-26T16:00:23.757Z,25.71
2022-07-26T16:02:52.221Z,25.82
2022-07-26T16:05:20.537Z,26.09
2022-07-26T16:07:49.865Z,26.20
2022-07-26T16:10:18.783Z,26.16
2022-07-26T16:12:46.858Z,26.04
2022-07-26T16:15:14.997Z,25.92
2022-07-26T16:17:42.919Z,25.86
2022-07-26T16:20:11.378Z,25.98
2022-07-26T16:22:41.006Z,26.17
2022-07-26T16:25:13.542Z,26.58
2022-07-26T16:27:43.051Z,26.69
2022-07-26T16:30:12.544Z,26.62
2022-07-26T16:32:40.585Z,26.81
2022-07-26T16:35:09.328Z,26.83
2022-07-26T16:37:37.352Z,27.09
2022-07-26T16:40:06.543Z,27.33
2022-07-26T16:42:35.937Z,27.53
2022-07-26T16:45:04.984Z,27.83
2022-07-26T16:47:32.913Z,28.01
2022-07-26T16:50:00.895Z,27.94
2022-07-26T16:52:28.950Z,28.08
2022-07-26T16:54:56.975Z,28.20
2022-07-26T16:57:24.851Z,28.21
2022-07-26T16:59:54.189Z,28.02
2022-07-26T17:02:22.253Z,27.97
2022-07-26T17:04:50.231Z,27.96
2022-07-26T17:07:26.235Z,28.17
2022-07-26T17:09:55.504Z,28.21
2022-07-26T17:12:24.026Z,28.30
2022-07-26T17:14:52.209Z,28.57
2022-07-26T17:17:21.597Z,28.67
2022-07-26T17:19:49.676Z,28.55
2022-07-26T17:22:18.382Z,28.27
2022-07-26T17:24:46.466Z,27.96
2022-07-26T17:27:14.912Z,27.80
2022-07-26T17:29:45.229Z,27.82
2022-07-26T17:32:13.205Z,27.75
2022-07-26T17:34:42.705Z,27.73
2022-07-26T17:37:12.250Z,27.53
2022-07-26T17:39:51.588Z,27.23
2022-07-26T17:42:21.055Z,27.16
2022-07-26T17:44:49.384Z,27.04
2022-07-26T17:47:18.142Z,26.86
2022-07-26T17:50:19.515Z,26.68
2022-07-26T17:52:49.115Z,26.53
2022-07-26T17:55:18.430Z,26.43
2022-07-26T17:57:47.602Z,26.14
2022-07-26T18:00:16.999Z,25.92
2022-07-26T18:02:44.922Z,25.70
2022-07-26T18:05:15.043Z,25.43
2022-07-26T18:07:43.104Z,25.19
2022-07-26T18:10:11.520Z,25.01
2022-07-26T18:12:39.474Z,24.84
2022-07-26T18:15:08.583Z,24.70
2022-07-26T18:17:37.284Z,24.57
2022-07-26T18:20:07.148Z,24.46
2022-07-26T18:22:36.493Z,24.36
2022-07-26T18:25:05.534Z,24.27
2022-07-26T18:27:34.059Z,24.18
2022-07-26T18:30:02.007Z,24.07
2022-07-26T18:32:29.928Z,23.97
2022-07-26T18:34:57.855Z,23.91
2022-07-26T18:37:25.813Z,23.83
2022-07-26T18:39:57.820Z,23.77
2022-07-26T18:42:26.338Z,23.65
2022-07-26T18:44:54.311Z,23.60
2022-07-26T18:47:22.289Z,23.50
2022-07-26T18:49:50.339Z,23.41
2022-07-26T18:52:28.770Z,23.31
2022-07-26T18:55:06.609Z,23.20
2022-07-26T18:57:34.885Z,23.22
2022-07-26T19:00:02.979Z,23.21
2022-07-26T19:02:31.012Z,23.07
2022-07-26T19:04:59.029Z,22.93
2022-07-26T19:07:27.051Z,22.91
2022-07-26T19:09:58.375Z,22.90
2022-07-26T19:12:29.155Z,22.87
2022-07-26T19:14:59.773Z,22.83
2022-07-26T19:17:30.308Z,22.77
2022-07-26T19:20:00.885Z,22.81
2022-07-26T19:22:30.356Z,22.69
2022-07-26T19:24:58.514Z,22.59
2022-07-26T19:27:28.737Z,22.53
2022-07-26T19:29:57.431Z,22.44
2022-07-26T19:32:29.051Z,22.44
2022-07-26T19:34:59.743Z,22.40
2022-07-26T19:37:27.645Z,22.37
2022-07-26T19:40:00.291Z,22.34
2022-07-26T19:42:31.755Z,22.34
2022-07-26T19:44:59.984Z,22.35
2022-07-26T19:47:29.659Z,22.34
2022-07-26T19:49:58.683Z,22.40
2022-07-26T19:52:26.645Z,22.40
2022-07-26T19:54:54.637Z,22.35
2022-07-26T19:57:22.790Z,22.28
2022-07-26T19:59:52.218Z,22.35
2022-07-26T20:02:20.281Z,22.28
2022-07-26T20:04:50.779Z,22.20
2022-07-26T20:07:19.639Z,22.19
2022-07-26T20:09:48.034Z,22.26
2022-07-26T20:12:17.467Z,22.44
2022-07-26T20:14:45.741Z,22.60
2022-07-26T20:17:15.212Z,22.73
2022-07-26T20:19:43.364Z,22.83
2022-07-26T20:22:11.809Z,22.92
2022-07-26T20:24:39.780Z,22.93
2022-07-26T20:27:08.248Z,22.88
2022-07-26T20:29:36.281Z,22.77
2022-07-26T20:32:04.307Z,22.82
2022-07-26T20:34:33.805Z,22.88
2022-07-26T20:37:01.694Z,22.93
2022-07-26T20:39:29.837Z,23.00
2022-07-26T20:41:58.213Z,23.00
2022-07-26T20:44:28.404Z,23.05
2022-07-26T20:46:56.831Z,23.06
2022-07-26T20:49:24.999Z,23.03
2022-07-26T20:51:54.379Z,22.99
2022-07-26T20:54:22.318Z,23.01
2022-07-26T20:56:50.616Z,23.03
2022-07-26T20:59:18.545Z,23.05
2022-07-26T21:01:46.772Z,23.07
2022-07-26T21:04:14.838Z,23.06
2022-07-26T21:06:42.887Z,23.07
2022-07-26T21:09:12.785Z,23.02
2022-07-26T21:11:40.918Z,23.02
2022-07-26T21:14:08.921Z,23.03
2022-07-26T21:16:37.046Z,23.01
2022-07-26T21:19:05.780Z,23.00
2022-07-26T21:21:36.966Z,22.94
2022-07-26T21:24:06.319Z,22.85
2022-07-26T21:26:35.843Z,22.82
2022-07-26T21:29:04.623Z,22.77
2022-07-26T21:31:32.690Z,22.72
2022-07-26T21:34:00.653Z,22.65
2022-07-26T21:36:28.591Z,22.54
2022-07-26T21:38:56.594Z,22.46
2022-07-26T21:41:24.527Z,22.43
2022-07-26T21:43:53.788Z,22.44
2022-07-26T21:46:21.906Z,22.45
2022-07-26T21:48:49.943Z,22.42
2022-07-26T21:51:18.369Z,22.39
2022-07-26T21:53:46.394Z,22.40
2022-07-26T21:56:14.629Z,22.41
2022-07-26T21:58:42.534Z,22.41
2022-07-26T22:01:12.718Z,22.45
2022-07-26T22:03:42.567Z,22.49
2022-07-26T22:06:11.293Z,22.42
2022-07-26T22:08:39.358Z,22.48
2022-07-26T22:11:07.415Z,22.45
2022-07-26T22:13:35.617Z,22.40
2022-07-26T22:16:03.727Z,22.35
2022-07-26T22:18:33.426Z,22.32
2022-07-26T22:21:01.576Z,22.32
2022-07-26T22:23:30.914Z,22.33
2022-07-26T22:25:59.551Z,22.33
2022-07-26T22:28:27.553Z,22.26
2022-07-26T22:30:55.620Z,22.29
2022-07-26T22:33:24.307Z,22.33
2022-07-26T22:35:53.865Z,22.20
2022-07-26T22:38:21.855Z,22.38
2022-07-26T22:40:49.806Z,22.35
2022-07-26T22:43:17.890Z,22.25
2022-07-26T22:45:45.860Z,22.11
2022-07-26T22:48:13.920Z,22.07
2022-07-26T22:50:41.873Z,21.99
2022-07-26T22:53:11.228Z,22.01
2022-07-26T22:55:39.157Z,21.95
2022-07-26T22:58:07.069Z,21.90
2022-07-26T23:00:35.208Z,21.84
2022-07-26T23:03:03.362Z,21.81
2022-07-26T23:05:45.812Z,21.70
2022-07-26T23:11:04.730Z,21.80
2022-07-26T23:13:32.677Z,21.74
2022-07-26T23:16:01.660Z,21.69
2022-07-26T23:18:31.055Z,21.68
2022-07-26T23:20:59.029Z,21.68
2022-07-26T23:23:29.602Z,21.73
2022-07-26T23:25:59.203Z,21.76
2022-07-26T23:28:35.867Z,21.72
2022-07-26T23:31:10.749Z,21.57
2022-07-26T23:33:51.473Z,21.52
2022-07-26T23:36:26.014Z,21.54
2022-07-26T23:38:56.492Z,21.58
2022-07-26T23:41:25.090Z,21.53
2022-07-26T23:43:54.156Z,21.47
2022-07-26T23:46:22.636Z,21.38
2022-07-26T23:48:51.576Z,21.28
2022-07-26T23:51:20.437Z,21.30
2022-07-26T23:53:48.917Z,21.22
2022-07-26T23:56:18.918Z,21.19
2022-07-26T23:58:46.951Z,21.13
